• Join FlightAware (Why Join?)
  • Login
  • US Flag 
09:52AM EDT


 

Airport Tracker/Info


-or-


 

Live Flight TrackerFlight Track Log ✈ SKW6448 ✈ 29-Jul-2013 ✈ KLAX - KAUS

Flight Track Log - Related Links

Times and Time Zones

All times are in EDT time to prevent confusion due to time zone crossing. See the SKW6448 flight status page for this flight to view local times or setup timezone preferences in your user account.

Time Position Orientation Groundspeed Altitude Reporting Facility
EDT Latitude Longitude Course Direction KTS MPH feet Rate Location/Type
10:51PM 33.9333 -118.4333 90° East 169 194 1,500  Level Southern California TRACON
10:52PM 33.9000 -118.5000 239° Southwest 255 293 2,800 1,980 Climbing Southern California TRACON
10:53PM 33.7633 -118.6177 132° Southeast  Level FlightAware Approximate
10:53PM 33.8172 -118.5356 200° South 268 308 6,000  Level Los Angeles Center
10:54PM 33.6815 -118.5058 101° East  Level FlightAware Approximate
10:54PM 33.7442 -118.5264 174° South 267 307 8,400  Level Los Angeles Center
10:55PM 33.6452 -118.3629 116° Southeast  Level FlightAware Approximate
10:55PM 33.6842 -118.4800 147° Southeast 285 328 10,300  Level Los Angeles Center
10:56PM 33.6333 -118.2157 90° East  Level FlightAware Approximate
10:56PM 33.6497 -118.3628 109° East 313 360 12,300  Level Los Angeles Center
10:57PM 33.6439 -118.2519 94° East 335 386 14,100 1,680 Climbing Los Angeles Center
10:58PM 33.6447 -118.1381 89° East 346 398 15,800 1,500 Climbing Los Angeles Center
10:59PM 33.6444 -118.0164 90° East 361 415 17,300 1,320 Climbing Los Angeles Center
11:01PM 33.6447 -117.8931 90° East 370 426 18,800 1,440 Climbing Los Angeles Center
11:02PM 33.6450 -117.7111 90° East 387 445 20,600 1,440 Climbing Los Angeles Center
11:03PM 33.6428 -117.5783 91° East 399 459 21,800 1,140 Climbing Los Angeles Center
11:04PM 33.6425 -117.4400 90° East 412 474 23,000 840 Climbing Los Angeles Center
11:05PM 33.6417 -117.3058 90° East 407 468 23,800 840 Climbing Los Angeles Center
11:06PM 33.6414 -117.1486 90° East 396 456 25,000 840 Climbing Los Angeles Center
11:07PM 33.6400 -117.0103 91° East 413 475 25,600 1,020 Climbing Los Angeles Center
11:08PM 33.6369 -116.8472 91° East 410 472 27,200 1,320 Climbing Los Angeles Center
11:09PM 33.6364 -116.7242 90° East 421 484 28,400 960 Climbing Los Angeles Center
11:10PM 33.6350 -116.5833 91° East 422 486 29,300 840 Climbing Los Angeles Center
11:11PM 33.6333 -116.4097 91° East 432 497 30,200 780 Climbing Los Angeles Center
11:12PM 33.6311 -116.2614 91° East 441 507 30,900 840 Climbing Los Angeles Center
11:13PM 33.6281 -116.1078 91° East 460 529 32,000 900 Climbing Los Angeles Center
11:14PM 33.6239 -115.9569 92° East 453 521 32,800 1,080 Climbing Los Angeles Center
11:15PM 33.6042 -115.8119 99° East 439 505 34,300 1,020 Climbing Los Angeles Center
11:16PM 33.5828 -115.6681 100° East 439 505 35,000 780 Climbing Los Angeles Center
11:17PM 33.5606 -115.5239 100° East 439 505 36,000 720 Climbing Los Angeles Center
11:18PM 33.5389 -115.3800 100° East 438 504 36,500 480 Climbing Los Angeles Center
11:19PM 33.5128 -115.2072 100° East 441 507 37,100 540 Climbing Los Angeles Center
11:20PM 33.4911 -115.0633 100° East 441 507 37,700 480 Climbing Los Angeles Center
11:21PM 33.4689 -114.9175 100° East 444 511 38,100 300 Climbing Los Angeles Center
11:23PM 33.4481 -114.7731 100° East 439 505 38,500 300 Climbing Los Angeles Center
11:24PM 33.4186 -114.6003 101° East 440 506 38,900 240 Climbing Los Angeles Center
11:25PM 33.3967 -114.4558 100° East 440 506 39,000 60 Climbing Los Angeles Center
11:25PM 33.3808 -114.3450 100° East 445 512 39,000  Level Albuquerque Center
11:26PM 33.3575 -114.1956 101° East 454 522 39,000  Level Albuquerque Center
11:27PM 33.3333 -114.0453 101° East 459 528 39,000  Level Albuquerque Center
11:28PM 33.3089 -113.8947 101° East 461 531 39,000  Level Albuquerque Center
11:29PM 33.2886 -113.7417 99° East 464 534 39,000  Level Albuquerque Center
11:30PM 33.2736 -113.5875 97° East 467 537 39,000  Level Albuquerque Center
11:31PM 33.2572 -113.4339 97° East 466 536 39,000  Level Albuquerque Center
11:32PM 33.2417 -113.2778 97° East 469 540 39,000  Level Albuquerque Center
11:33PM 33.2203 -113.0931 98° East 468 539 39,000  Level Albuquerque Center
11:34PM 33.2036 -112.9383 97° East 468 539 39,000  Level Albuquerque Center
11:35PM 33.1867 -112.7844 97° East 467 537 39,000  Level Albuquerque Center
11:37PM 33.1694 -112.6314 98° East 465 535 39,000  Level Albuquerque Center
11:38PM 33.1508 -112.4797 98° East 464 534 39,000  Level Albuquerque Center
11:39PM 33.1331 -112.3261 98° East 465 535 39,000  Level Albuquerque Center
11:40PM 33.1156 -112.1767 98° East 464 534 39,000  Level Albuquerque Center
11:41PM 33.0981 -112.0250 98° East 464 534 39,000  Level Albuquerque Center
11:42PM 33.0764 -111.8428 98° East 465 535 39,000  Level Albuquerque Center
11:43PM 33.0597 -111.6928 98° East 462 532 39,000  Level Albuquerque Center
11:44PM 33.0417 -111.5422 98° East 462 532 39,000  Level Albuquerque Center
11:45PM 33.0225 -111.3925 99° East 461 531 39,000  Level Albuquerque Center
11:46PM 33.0047 -111.2414 98° East 463 533 39,000  Level Albuquerque Center
11:47PM 32.9853 -111.0906 99° East 464 534 39,000  Level Albuquerque Center
11:48PM 32.9664 -110.9403 98° East 462 532 39,000  Level Albuquerque Center
11:49PM 32.9436 -110.7600 99° East 460 529 39,000  Level Albuquerque Center
11:50PM 32.9247 -110.6161 99° East 462 532 39,000  Level Albuquerque Center
11:51PM 32.9053 -110.4669 99° East 460 529 39,000  Level Albuquerque Center
11:52PM 32.8853 -110.3161 99° East 461 531 39,000  Level Albuquerque Center
11:53PM 32.8658 -110.1667 99° East 460 529 39,000  Level Albuquerque Center
11:54PM 32.8397 -109.9869 100° East 464 534 39,000  Level Albuquerque Center
11:55PM 32.8192 -109.8383 99° East 461 531 39,000  Level Albuquerque Center
11:56PM 32.8006 -109.6917 99° East 456 525 39,000  Level Albuquerque Center
11:57PM 32.7794 -109.5439 100° East 456 525 39,000  Level Albuquerque Center
11:58PM 32.7586 -109.3953 99° East 457 526 39,000  Level Albuquerque Center
11:59PM 32.7369 -109.2475 100° East 458 527 39,000  Level Albuquerque Center
12:00AM 32.7156 -109.1011 100° East 458 527 39,000  Level Albuquerque Center
12:01AM 32.6906 -108.9253 100° East 458 527 39,000  Level Albuquerque Center
12:02AM 32.6689 -108.7775 100° East 461 531 39,000  Level Albuquerque Center
12:03AM 32.6483 -108.6322 100° East 455 524 39,000  Level Albuquerque Center
12:04AM 32.6275 -108.4850 99° East 456 525 39,000  Level Albuquerque Center
12:05AM 32.6047 -108.3394 100° East 454 522 39,000  Level Albuquerque Center
12:06AM 32.5831 -108.1933 100° East 452 520 39,000  Level Albuquerque Center
12:07AM 32.5611 -108.0469 100° East 454 522 39,000  Level Albuquerque Center
12:08AM 32.5344 -107.8708 100° East 455 524 39,000  Level Albuquerque Center
12:09AM 32.5142 -107.7422 101° East 453 521 39,000  Level Albuquerque Center
12:10AM 32.4925 -107.5969 100° East 452 520 39,000  Level Albuquerque Center
12:11AM 32.4669 -107.4325 100° East 455 524 39,000  Level Albuquerque Center
12:12AM 32.4453 -107.2858 100° East 455 524 39,000  Level Albuquerque Center
12:13AM 32.4206 -107.1247 100° East 452 520 39,000  Level Albuquerque Center
12:14AM 32.3961 -106.9781 101° East 453 521 39,000  Level Albuquerque Center
12:15AM 32.3758 -106.8475 100° East 454 522 39,000  Level Albuquerque Center
12:16AM 32.3528 -106.7019 101° East 454 522 39,000  Level Albuquerque Center
12:17AM 32.3247 -106.5264 101° East 454 522 39,000  Level Albuquerque Center
12:18AM 32.3000 -106.3822 101° East 451 519 39,000  Level Albuquerque Center
12:19AM 32.2761 -106.2356 101° East 453 521 39,000  Level Albuquerque Center
12:21AM 32.2494 -106.0797 101° East 450 518 39,000  Level Albuquerque Center
12:22AM 32.2228 -105.9350 102° East 450 518 39,000  Level Albuquerque Center
12:23AM 32.1925 -105.7911 104° East 451 519 39,000  Level Albuquerque Center
12:24AM 32.1622 -105.6483 104° East 450 518 39,000  Level Albuquerque Center
12:25AM 32.1292 -105.4942 104° East 450 518 39,000  Level Albuquerque Center
12:26AM 32.0983 -105.3508 104° East 451 519 39,000  Level Albuquerque Center
12:27AM 32.0747 -105.2328 103° East 445 512 39,000  Level Albuquerque Center
12:28AM 32.0336 -105.0633 106° East 446 513 39,000  Level Albuquerque Center
12:29AM 32.0103 -104.9197 101° East 446 513 39,000  Level Albuquerque Center
12:30AM 31.9781 -104.7778 105° East 448 516 39,000  Level Albuquerque Center
12:31AM 31.9475 -104.6447 105° East 445 512 39,000  Level Albuquerque Center
12:32AM 31.9186 -104.5044 104° East 444 511 39,000  Level Albuquerque Center
12:33AM 31.8869 -104.3642 105° East 445 512 39,000 -60 Level Albuquerque Center
12:34AM 31.8533 -104.2178 105° East 443 510 38,900  Descending Albuquerque Center
12:35AM 31.8153 -104.0492 105° East 445 512 39,000  Climbing Albuquerque Center
12:36AM 31.7822 -103.9081 105° East 447 514 39,000  Level Albuquerque Center
12:37AM 31.7464 -103.7478 105° East 447 514 39,000  Level Albuquerque Center
12:38AM 31.7153 -103.6081 105° East 446 513 39,000  Level Albuquerque Center
12:39AM 31.6833 -103.4681 105° East 446 513 39,000  Level Albuquerque Center
12:40AM 31.6481 -103.3183 105° East 447 514 39,000  Level Albuquerque Center
12:41AM 31.6147 -103.1783 106° East 446 513 39,000  Level Albuquerque Center
12:42AM 31.5814 -103.0400 106° East 444 511 39,000  Level Albuquerque Center
12:43AM 31.5489 -102.9000 105° East 445 512 39,000  Level Albuquerque Center
12:44AM 31.5161 -102.7603 105° East 446 513 39,000  Level Albuquerque Center
12:45AM 31.4825 -102.6206 106° East 446 513 39,000  Level Albuquerque Center
12:46AM 31.4522 -102.4942 106° East 446 513 39,000  Level Albuquerque Center
12:47AM 31.4186 -102.3553 106° East 453 521 39,000  Level Albuquerque Center
12:48AM 31.3800 -102.1822 105° East 477 549 39,000  Level Albuquerque Center
12:49AM 31.3481 -102.0414 105° East 461 531 39,000  Level Houston Center
12:50AM 31.3125 -101.9028 107° East 447 514 39,000 -60 Level Houston Center
12:51AM 31.2772 -101.7628 106° East 447 514 38,900  Descending Houston Center
12:52AM 31.2422 -101.6225 106° East 449 517 39,000  Climbing Houston Center
12:53AM 31.2072 -101.4819 106° East 451 519 39,000  Level Houston Center
12:54AM 31.1711 -101.3344 106° East 452 520 39,000  Level Houston Center
12:55AM 31.1344 -101.1953 107° East 451 519 39,000  Level Houston Center
12:56AM 31.1006 -101.0528 105° East 454 522 39,000  Level Houston Center
12:57AM 31.0650 -100.9125 106° East 453 521 39,000  Level Houston Center
12:58AM 31.0294 -100.7742 107° East 447 514 39,000 -60 Level Houston Center
12:59AM 30.9950 -100.6356 106° East 445 512 38,900 -60 Descending Houston Center
01:00AM 30.9586 -100.4989 107° East 443 510 38,900  Level Houston Center
01:01AM 30.9242 -100.3631 106° East 437 503 38,900  Level Houston Center
01:02AM 30.8894 -100.2278 107° East 436 502 38,900  Level Houston Center
01:03AM 30.8550 -100.0925 106° East 435 501 39,000  Climbing Houston Center
01:04AM 30.8194 -99.9581 107° East 433 498 39,000 -60 Level Houston Center
01:05AM 30.7850 -99.8244 107° East 431 496 38,900 -60 Descending Houston Center
01:06AM 30.7492 -99.6903 107° East 433 498 38,900 -300 Level Houston Center
01:07AM 30.7142 -99.5575 107° East 430 495 38,300 -1,200 Descending Houston Center
01:08AM 30.6781 -99.4194 107° East 441 507 36,500 -2,040 Descending Houston Center
01:09AM 30.6394 -99.2775 108° East 456 525 34,200 -2,700 Descending Houston Center
01:10AM 30.6017 -99.1339 107° East 463 533 31,100 -2,940 Descending Houston Center
01:11AM 30.5658 -99.0067 108° East 466 536 28,400 -2,940 Descending Houston Center
01:12AM 30.5272 -98.8639 107° East 463 533 25,300 -3,120 Descending Houston Center
01:13AM 30.4892 -98.7253 108° East 450 518 22,200 -3,060 Descending Houston Center
01:14AM 30.4522 -98.5897 108° East 439 505 19,200 -2,880 Descending Houston Center
01:15AM 30.4161 -98.4581 108° East 428 493 16,500 -2,760 Descending Houston Center
01:16AM 30.3981 -98.3322 99° East 400 460 13,700 -2,880 Descending Houston Center
01:17AM 30.3786 -98.2133 101° East 378 435 10,800 -1,740 Descending Houston Center
01:18AM 30.3617 -98.1075 100° East 336 387 10,300 -1,140 Descending Houston Center
01:19AM 30.3478 -98.0150 100° East 294 338 8,600 -1,800 Descending Houston Center
01:20AM 30.3333 -97.9269 101° East 282 325 6,700 -1,740 Descending Houston Center
01:21AM 30.3200 -97.8458 101° East 262 302 5,200 -1,440 Descending Houston Center
01:22AM 30.3075 -97.7664 100° East 255 293 3,800 -1,380 Descending Houston Center
01:23AM 30.2942 -97.7000 103° East 229 264 2,500 -1,200 Descending Houston Center
01:24AM 30.2586 -97.6794 153° Southeast 163 188 1,400 -780 Descending Houston Center
01:25AM 30.2264 -97.6772 177° South 141 162 1,000 -420 Descending Houston Center
01:27AM 30.1945 -97.6699 106° East  Level Estimated